Time;durP1;ratioP1;P1;durP2;ratioP2;P2;SDS_P1;SDS_P2;PMS_P1;PMS_P2;Temp;Humidity;BMP_temperature;BMP_pressure;BME280_temperature;BME280_humidity;BME280_pressure;Samples;Min_cycle;Max_cycle;Signal;HPM_P1;HPM_P2
2021/10/19 00:00:11;;;;;;;35.93;27.83;;;8.30;1.00;9.70;101286.00;;;;4966609;28;20460;-73
2021/10/19 00:02:40;;;;;;;38.77;27.87;;;8.30;1.00;9.70;101310.00;;;;4963459;28;20472;-75
2021/10/19 00:05:12;;;;;;;36.90;26.60;;;8.20;1.00;9.60;101297.00;;;;4949441;28;20659;-75
2021/10/19 00:07:41;;;;;;;30.77;25.53;;;8.10;1.00;9.60;101297.00;;;;4952091;28;20468;-75
2021/10/19 00:10:12;;;;;;;34.53;26.20;;;8.00;1.00;9.60;101291.00;;;;4956585;28;20491;-79
2021/10/19 00:12:42;;;;;;;37.00;28.40;;;8.00;1.00;9.60;101304.00;;;;4958575;28;20980;-74
2021/10/19 00:15:12;;;;;;;36.33;29.23;;;8.10;1.00;9.60;101306.00;;;;4957849;28;20484;-78
2021/10/19 00:17:44;;;;;;;34.20;27.33;;;8.00;1.00;9.60;101279.00;;;;4961713;28;20851;-75
2021/10/19 00:20:16;;;;;;;33.93;28.70;;;8.10;1.00;9.60;101306.00;;;;4959210;28;20456;-75
2021/10/19 00:22:46;;;;;;;33.20;27.70;;;8.10;1.00;9.60;101277.00;;;;4963401;28;20472;-77
2021/10/19 00:25:17;;;;;;;34.63;27.50;;;8.20;1.00;9.70;101294.00;;;;4965752;28;20634;-78
2021/10/19 00:27:46;;;;;;;34.33;27.13;;;8.20;1.00;9.70;101287.00;;;;4960704;28;20476;-74
2021/10/19 00:30:15;;;;;;;28.90;25.80;;;8.20;1.00;9.80;101305.00;;;;4958809;28;20465;-77
2021/10/19 00:32:44;;;;;;;34.20;25.83;;;8.20;1.00;9.80;101287.00;;;;4971270;28;20524;-75
2021/10/19 00:35:14;;;;;;;29.53;26.17;;;8.20;1.00;9.80;101300.00;;;;4984823;28;20483;-74
2021/10/19 00:37:42;;;;;;;29.70;26.47;;;8.30;1.00;9.80;101296.00;;;;4972819;28;20455;-77
2021/10/19 00:40:12;;;;;;;35.23;31.43;;;8.30;1.00;9.80;101313.00;;;;4960724;28;20534;-74
2021/10/19 00:42:40;;;;;;;31.67;27.53;;;8.20;1.00;9.80;101281.00;;;;4961304;28;20479;-77
2021/10/19 00:45:10;;;;;;;34.40;27.90;;;8.20;1.00;9.80;101312.00;;;;4962912;28;20471;-80
2021/10/19 00:47:46;;;;;;;34.10;27.90;;;8.30;1.00;9.80;101313.00;;;;4965652;28;20847;-77
2021/10/19 00:50:17;;;;;;;33.57;28.93;;;8.30;1.00;9.80;101314.00;;;;4972519;28;20457;-75
2021/10/19 00:52:46;;;;;;;35.70;28.70;;;8.20;1.00;9.90;101313.00;;;;4958051;28;20453;-80
2021/10/19 00:55:15;;;;;;;34.17;28.17;;;8.30;1.00;9.80;101292.00;;;;4966022;28;20483;-78
2021/10/19 00:57:45;;;;;;;35.33;27.53;;;8.20;1.00;9.80;101298.00;;;;4957502;28;20859;-77
2021/10/19 01:00:14;;;;;;;32.57;27.13;;;8.30;1.00;9.90;101268.00;;;;4973369;28;20492;-75
2021/10/19 01:02:43;;;;;;;31.60;26.27;;;8.30;1.00;9.90;101285.00;;;;4957407;28;20534;-73
2021/10/19 01:05:14;;;;;;;33.33;26.67;;;8.50;1.00;10.00;101260.00;;;;4961584;28;20464;-74
2021/10/19 01:07:45;;;;;;;29.17;25.43;;;8.40;1.00;10.00;101262.00;;;;4961632;28;20464;-80
2021/10/19 01:10:14;;;;;;;32.87;27.60;;;8.30;1.00;10.00;101253.00;;;;4958599;28;20454;-77
2021/10/19 01:12:43;;;;;;;31.50;25.73;;;8.40;1.00;10.00;101271.00;;;;4959990;28;20461;-74
2021/10/19 01:15:13;;;;;;;35.63;29.17;;;8.40;1.00;10.00;101278.00;;;;4944551;28;20480;-78
2021/10/19 01:17:44;;;;;;;33.03;28.90;;;8.30;1.00;10.00;101262.00;;;;4956783;28;20460;-74
2021/10/19 01:20:24;;;;;;;33.43;28.47;;;8.30;1.00;10.00;101270.00;;;;4972574;28;20568;-75
2021/10/19 01:22:57;;;;;;;32.90;27.17;;;8.40;1.00;10.00;101286.00;;;;4941336;28;21067;-76
2021/10/19 01:25:28;;;;;;;31.57;27.23;;;8.30;1.00;10.00;101260.00;;;;4944145;28;21039;-76
2021/10/19 01:28:01;;;;;;;30.63;25.27;;;8.40;1.00;10.00;101284.00;;;;4950078;28;20562;-75
2021/10/19 01:30:30;;;;;;;34.23;26.73;;;8.40;1.00;10.00;101266.00;;;;4952267;28;20464;-77
2021/10/19 01:32:59;;;;;;;31.37;26.20;;;8.40;1.00;10.00;101255.00;;;;4955768;28;20455;-77
2021/10/19 01:35:38;;;;;;;30.03;26.20;;;8.40;1.00;10.00;101246.00;;;;4948853;28;20484;-72
2021/10/19 01:38:11;;;;;;;31.50;25.67;;;8.50;1.00;10.00;101263.00;;;;4963965;28;20857;-75
2021/10/19 01:40:40;;;;;;;30.10;25.93;;;8.50;1.00;10.10;101259.00;;;;4953793;28;20441;-77
2021/10/19 01:43:13;;;;;;;30.47;26.47;;;8.50;1.00;10.10;101260.00;;;;4954339;28;20503;-77
2021/10/19 01:45:42;;;;;;;28.50;25.23;;;8.40;1.00;10.10;101106.00;;;;4958422;28;20454;-74
2021/10/19 01:48:11;;;;;;;29.30;23.93;;;8.40;1.00;10.00;101251.00;;;;4977449;28;20518;-75
2021/10/19 01:50:40;;;;;;;33.40;25.67;;;8.40;1.00;10.00;101259.00;;;;4975481;28;20459;-74
2021/10/19 01:53:10;;;;;;;31.20;25.40;;;8.40;1.00;10.00;101271.00;;;;4978182;28;20527;-73
2021/10/19 01:55:41;;;;;;;34.47;26.20;;;8.40;1.00;10.10;101252.00;;;;4973701;28;20456;-73
2021/10/19 01:58:12;;;;;;;32.43;26.77;;;8.40;1.00;10.00;101256.00;;;;4962746;28;20459;-77
2021/10/19 02:00:42;;;;;;;31.07;24.87;;;8.40;1.00;10.00;101217.00;;;;4959120;28;21008;-76
2021/10/19 02:03:11;;;;;;;33.43;26.43;;;8.40;1.00;10.00;101185.00;;;;4962109;28;20482;-76
2021/10/19 02:05:46;;;;;;;27.70;22.90;;;8.40;1.00;10.00;101229.00;;;;4960488;28;20491;-77
2021/10/19 02:08:25;;;;;;;30.00;24.50;;;8.50;1.00;10.10;101215.00;;;;4956978;28;20495;-75
2021/10/19 02:10:55;;;;;;;33.43;25.23;;;8.50;1.00;10.10;101218.00;;;;4973246;28;20496;-76
2021/10/19 02:13:26;;;;;;;27.40;24.33;;;8.50;1.00;10.20;101230.00;;;;4956583;28;20479;-76
2021/10/19 02:15:55;;;;;;;27.53;24.03;;;8.60;1.00;10.10;101190.00;;;;4959623;28;20455;-77
2021/10/19 02:18:24;;;;;;;32.40;24.97;;;8.60;1.00;10.20;101200.00;;;;4958349;28;20457;-74
2021/10/19 02:20:55;;;;;;;33.20;25.00;;;8.60;1.00;10.20;101184.00;;;;4959496;28;21016;-74
2021/10/19 02:23:26;;;;;;;33.47;27.27;;;8.60;1.00;10.20;101214.00;;;;4958774;28;20472;-77
2021/10/19 02:25:55;;;;;;;29.40;25.30;;;8.50;1.00;10.20;101218.00;;;;4958730;28;20472;-75
2021/10/19 02:28:23;;;;;;;28.33;23.73;;;8.50;1.00;10.20;101234.00;;;;4957934;28;20463;-77
2021/10/19 02:30:51;;;;;;;31.20;25.20;;;8.50;1.00;10.20;101215.00;;;;4956756;28;20452;-74
2021/10/19 02:33:20;;;;;;;28.80;24.33;;;8.60;1.00;10.20;101217.00;;;;4957210;28;20459;-74
2021/10/19 02:35:48;;;;;;;26.93;23.33;;;8.60;1.00;10.20;101221.00;;;;4948077;28;20468;-74
2021/10/19 02:38:18;;;;;;;28.27;24.60;;;8.70;1.00;10.20;101208.00;;;;4958093;28;20455;-79
2021/10/19 02:40:48;;;;;;;29.40;23.23;;;8.70;1.00;10.30;101213.00;;;;4957720;28;20687;-74
2021/10/19 02:43:16;;;;;;;26.93;23.80;;;8.70;1.00;10.30;101200.00;;;;4957999;28;20502;-78
2021/10/19 02:45:44;;;;;;;27.47;23.07;;;8.70;1.00;10.30;101208.00;;;;4957901;28;20455;-75
2021/10/19 02:48:13;;;;;;;25.63;22.17;;;8.70;1.00;10.30;101220.00;;;;4958980;28;20459;-75
2021/10/19 02:50:41;;;;;;;27.63;23.53;;;8.70;1.00;10.40;101209.00;;;;4960771;28;20468;-76
2021/10/19 02:53:09;;;;;;;27.70;23.07;;;8.80;1.00;10.40;101187.00;;;;4963556;28;20579;-74
2021/10/19 02:55:39;;;;;;;29.50;24.30;;;8.80;1.00;10.40;101209.00;;;;4952658;28;20459;-74
2021/10/19 02:58:08;;;;;;;28.43;23.20;;;8.80;1.00;10.50;101211.00;;;;4961254;28;20582;-77
2021/10/19 03:00:39;;;;;;;26.80;23.33;;;8.90;1.00;10.50;101183.00;;;;4961843;28;20464;-75
2021/10/19 03:03:07;;;;;;;31.50;25.13;;;8.90;1.00;10.50;101180.00;;;;4962692;28;20487;-75
2021/10/19 03:05:36;;;;;;;27.17;23.10;;;8.90;1.00;10.50;101180.00;;;;4961993;28;20474;-77
2021/10/19 03:08:05;;;;;;;32.20;26.30;;;9.00;1.00;10.50;101187.00;;;;4960276;28;20465;-75
2021/10/19 03:10:33;;;;;;;27.97;24.40;;;9.10;1.00;10.60;101184.00;;;;4963408;28;20455;-75
2021/10/19 03:13:03;;;;;;;32.33;24.10;;;9.10;1.00;10.50;101203.00;;;;4961959;28;20468;-74
2021/10/19 03:15:31;;;;;;;36.17;26.37;;;9.10;1.00;10.60;101200.00;;;;4960757;28;20487;-74
2021/10/19 03:17:59;;;;;;;32.13;26.43;;;9.10;1.00;10.60;101202.00;;;;4962606;28;20559;-73
2021/10/19 03:20:30;;;;;;;30.37;25.57;;;9.20;1.00;10.50;101189.00;;;;4952753;28;20448;-79
2021/10/19 03:22:58;;;;;;;33.17;27.27;;;9.20;1.00;10.50;101193.00;;;;4961539;28;20535;-77
2021/10/19 03:25:27;;;;;;;31.53;27.33;;;9.20;1.00;10.50;101176.00;;;;4963203;28;20505;-76
2021/10/19 03:27:55;;;;;;;34.13;26.60;;;9.20;1.00;10.50;101200.00;;;;4961435;28;20458;-75
2021/10/19 03:30:25;;;;;;;33.57;29.10;;;9.20;1.00;10.50;101204.00;;;;4959111;28;20463;-75
2021/10/19 03:32:53;;;;;;;35.67;28.40;;;9.20;1.00;10.50;101204.00;;;;4957169;28;20450;-76
2021/10/19 03:35:22;;;;;;;33.60;27.70;;;9.30;1.00;10.50;101176.00;;;;4959414;28;20506;-74
2021/10/19 03:37:50;;;;;;;33.20;28.20;;;9.30;1.00;10.50;101197.00;;;;4960596;28;20476;-79
2021/10/19 03:40:18;;;;;;;35.30;27.87;;;9.30;1.00;10.50;101200.00;;;;4962955;28;20470;-74
2021/10/19 03:42:48;;;;;;;35.30;30.13;;;9.40;1.00;10.50;101189.00;;;;4962435;28;20527;-74
2021/10/19 03:45:18;;;;;;;39.90;29.57;;;9.30;1.00;10.50;101198.00;;;;4958229;28;20483;-75
2021/10/19 03:47:47;;;;;;;36.97;29.97;;;9.30;1.00;10.50;101200.00;;;;4962081;28;20551;-75
2021/10/19 03:50:16;;;;;;;36.97;29.70;;;9.30;1.00;10.50;101196.00;;;;4961204;28;20467;-76
2021/10/19 03:52:45;;;;;;;39.03;31.53;;;9.30;1.00;10.50;101198.00;;;;4959412;28;20454;-73
2021/10/19 03:55:13;;;;;;;35.30;30.70;;;9.30;1.00;10.50;101208.00;;;;4960104;28;20488;-75
2021/10/19 03:57:43;;;;;;;39.07;30.90;;;9.30;1.00;10.50;101212.00;;;;4958298;28;20464;-75
2021/10/19 04:00:13;;;;;;;36.20;28.63;;;9.30;1.00;10.50;101197.00;;;;4959080;28;20447;-74
2021/10/19 04:02:41;;;;;;;38.77;31.53;;;9.30;1.00;10.40;101210.00;;;;4958983;28;20470;-76
2021/10/19 04:05:11;;;;;;;36.90;30.90;;;9.20;1.00;10.40;101211.00;;;;4961660;28;20986;-78
2021/10/19 04:07:45;;;;;;;38.53;31.60;;;9.20;1.00;10.50;101215.00;;;;4968289;28;20540;-78
2021/10/19 04:10:16;;;;;;;38.47;32.50;;;9.20;1.00;10.50;101209.00;;;;4975334;28;20451;-78
2021/10/19 04:12:45;;;;;;;33.80;29.63;;;9.30;1.00;10.50;101214.00;;;;4974843;28;20459;-76
2021/10/19 04:15:13;;;;;;;37.50;31.10;;;9.30;1.00;10.50;101205.00;;;;4966136;28;20492;-73
2021/10/19 04:17:41;;;;;;;41.80;32.67;;;9.20;1.00;10.50;101213.00;;;;4961245;28;20460;-73
2021/10/19 04:20:12;;;;;;;37.03;30.20;;;9.30;1.00;10.50;101214.00;;;;4965252;28;20470;-76
2021/10/19 04:22:40;;;;;;;35.90;30.50;;;9.20;1.00;10.40;101215.00;;;;4966574;28;20491;-76
2021/10/19 04:25:10;;;;;;;35.97;30.37;;;9.20;1.00;10.30;101212.00;;;;4964125;28;20491;-74
2021/10/19 04:27:38;;;;;;;37.00;31.17;;;9.10;1.00;10.30;101205.00;;;;4961483;28;20460;-75
2021/10/19 04:30:08;;;;;;;40.07;32.10;;;9.10;1.00;10.20;101225.00;;;;4960851;28;20531;-74
2021/10/19 04:32:36;;;;;;;40.10;30.63;;;9.10;1.00;10.20;101176.00;;;;4963323;28;20468;-73
2021/10/19 04:35:05;;;;;;;42.33;31.83;;;9.20;1.00;10.30;101196.00;;;;4964323;28;20491;-74
2021/10/19 04:37:36;;;;;;;38.53;30.10;;;9.10;1.00;10.20;101209.00;;;;4963211;28;20464;-73
2021/10/19 04:40:05;;;;;;;39.50;31.87;;;9.10;1.00;10.20;101209.00;;;;4962897;28;20474;-73
2021/10/19 04:42:37;;;;;;;41.13;33.30;;;9.00;1.00;10.20;101201.00;;;;4964169;28;20488;-74
2021/10/19 04:45:07;;;;;;;42.90;32.90;;;9.10;1.00;10.20;101202.00;;;;4967127;28;20556;-78
2021/10/19 04:47:35;;;;;;;40.07;33.17;;;9.10;1.00;10.30;101181.00;;;;4960182;28;20484;-76
2021/10/19 04:50:07;;;;;;;40.93;32.87;;;9.10;1.00;10.30;101212.00;;;;4961921;28;20491;-74
2021/10/19 04:52:38;;;;;;;42.13;32.37;;;9.20;1.00;10.30;101216.00;;;;4960792;28;20452;-73
2021/10/19 04:55:07;;;;;;;41.40;33.13;;;9.10;1.00;10.40;101229.00;;;;4965268;28;20571;-76
2021/10/19 04:57:36;;;;;;;39.77;32.53;;;9.10;1.00;10.40;101234.00;;;;4957575;28;20452;-76
2021/10/19 05:00:06;;;;;;;40.67;31.03;;;9.20;1.00;10.40;101216.00;;;;4957257;28;20529;-78
2021/10/19 05:02:43;;;;;;;42.00;32.80;;;9.20;1.00;10.30;101206.00;;;;4964860;28;20465;-74
2021/10/19 05:05:11;;;;;;;45.27;34.57;;;9.10;1.00;10.30;101200.00;;;;4981833;28;20865;-75
2021/10/19 05:07:41;;;;;;;43.30;34.10;;;9.10;1.00;10.20;101193.00;;;;4974749;28;20499;-74
2021/10/19 05:10:10;;;;;;;43.43;33.27;;;9.00;1.00;10.20;101188.00;;;;4966489;28;20451;-74
2021/10/19 05:12:38;;;;;;;41.60;33.20;;;9.00;1.00;10.20;101185.00;;;;4966326;28;20842;-75
2021/10/19 05:15:08;;;;;;;50.90;34.00;;;9.00;1.00;10.20;101171.00;;;;4962348;28;20496;-74
2021/10/19 05:17:36;;;;;;;49.00;35.43;;;9.00;1.00;10.20;101136.00;;;;4966639;28;20486;-75
2021/10/19 05:20:07;;;;;;;51.10;35.80;;;9.00;1.00;10.20;101162.00;;;;4981623;28;20452;-76
2021/10/19 05:22:36;;;;;;;48.30;34.73;;;9.00;1.00;10.20;101204.00;;;;4965126;28;20455;-76
2021/10/19 05:25:07;;;;;;;49.50;36.50;;;9.10;1.00;10.30;101193.00;;;;4965462;28;20573;-74
2021/10/19 05:27:35;;;;;;;46.33;34.83;;;9.10;1.00;10.30;101185.00;;;;4959982;28;20474;-76
2021/10/19 05:30:04;;;;;;;50.77;35.07;;;9.10;1.00;10.30;101199.00;;;;4961569;28;20467;-76
2021/10/19 05:32:32;;;;;;;44.67;35.23;;;9.10;1.00;10.30;101190.00;;;;4959190;28;20474;-76
2021/10/19 05:35:01;;;;;;;46.53;35.40;;;9.10;1.00;10.30;101188.00;;;;4956690;28;20483;-77
2021/10/19 05:37:29;;;;;;;42.13;32.80;;;9.10;1.00;10.10;101185.00;;;;4960651;28;20467;-73
2021/10/19 05:39:57;;;;;;;49.10;36.80;;;9.10;1.00;10.30;101189.00;;;;4959995;28;20474;-73
2021/10/19 05:42:46;;;;;;;52.27;38.63;;;9.10;1.00;10.30;101182.00;;;;4959550;28;20540;-76
2021/10/19 05:45:15;;;;;;;47.80;37.17;;;9.10;1.00;10.30;101175.00;;;;4959181;28;20491;-75
2021/10/19 05:47:45;;;;;;;49.90;36.20;;;9.10;1.00;10.30;101177.00;;;;4960845;28;20459;-75
2021/10/19 05:50:16;;;;;;;50.30;34.60;;;9.10;1.00;10.30;101169.00;;;;4963579;28;20467;-77
2021/10/19 05:52:45;;;;;;;50.63;35.40;;;9.10;1.00;10.30;101163.00;;;;4965403;28;20481;-73
2021/10/19 05:55:13;;;;;;;47.80;35.60;;;9.10;1.00;10.30;101176.00;;;;4954803;28;20484;-78
2021/10/19 05:57:42;;;;;;;45.23;33.10;;;9.10;1.00;10.20;101172.00;;;;4981533;28;20456;-78
2021/10/19 06:00:13;;;;;;;40.83;32.90;;;9.10;1.00;10.30;101169.00;;;;4980025;28;20444;-75
2021/10/19 06:02:41;;;;;;;51.13;35.33;;;9.00;1.00;10.30;101183.00;;;;4983153;28;20463;-78
2021/10/19 06:05:10;;;;;;;43.70;30.40;;;9.10;1.00;10.30;101193.00;;;;4966090;28;20503;-75
2021/10/19 06:07:38;;;;;;;38.23;30.10;;;9.10;1.00;10.30;101164.00;;;;4967983;28;20447;-75
2021/10/19 06:10:08;;;;;;;40.90;30.73;;;9.10;1.00;10.30;101180.00;;;;4967015;28;20468;-77
2021/10/19 06:12:37;;;;;;;38.47;29.60;;;9.10;1.00;10.20;101186.00;;;;4966936;28;20523;-78
2021/10/19 06:15:06;;;;;;;41.33;31.30;;;9.10;1.00;10.20;101179.00;;;;4971348;28;20514;-76
2021/10/19 06:17:36;;;;;;;41.37;32.77;;;9.10;1.00;10.30;101180.00;;;;4969046;28;20456;-76
2021/10/19 06:20:09;;;;;;;40.63;31.60;;;9.10;1.00;10.30;101177.00;;;;4968442;28;20523;-78
2021/10/19 06:22:37;;;;;;;39.77;30.90;;;9.10;1.00;10.40;101185.00;;;;4975427;28;20452;-75
2021/10/19 06:25:07;;;;;;;44.07;32.30;;;9.10;1.00;10.40;101192.00;;;;4974876;28;20491;-75
2021/10/19 06:27:36;;;;;;;39.53;29.43;;;9.10;1.00;10.40;101178.00;;;;4978171;28;20460;-79
2021/10/19 06:30:07;;;;;;;44.67;32.10;;;9.10;1.00;10.40;101181.00;;;;4976537;28;20498;-78
2021/10/19 06:32:37;;;;;;;38.83;30.67;;;9.20;1.00;10.40;101183.00;;;;4966270;28;20490;-76
2021/10/19 06:35:08;;;;;;;36.50;28.03;;;9.20;1.00;10.40;101181.00;;;;4966135;28;21197;-75
2021/10/19 06:37:37;;;;;;;35.87;27.57;;;9.20;1.00;10.40;101164.00;;;;4964060;28;20996;-77
2021/10/19 06:40:08;;;;;;;38.47;29.07;;;9.10;1.00;10.30;101174.00;;;;4957207;28;20908;-76
2021/10/19 06:42:36;;;;;;;34.67;28.00;;;9.10;1.00;10.30;101179.00;;;;4962492;28;20483;-76
2021/10/19 06:45:06;;;;;;;37.03;28.60;;;9.20;1.00;10.30;101140.00;;;;4959170;28;20549;-79
2021/10/19 06:47:35;;;;;;;38.20;29.40;;;9.10;1.00;10.30;101173.00;;;;4970727;28;20451;-76
2021/10/19 06:50:05;;;;;;;39.43;28.80;;;9.10;1.00;10.30;101170.00;;;;4964692;28;20480;-75
2021/10/19 06:52:36;;;;;;;37.53;29.33;;;9.10;1.00;10.30;101169.00;;;;4966813;28;20465;-76
2021/10/19 06:55:05;;;;;;;38.90;28.90;;;9.10;1.00;10.30;101177.00;;;;4986101;28;20480;-76
2021/10/19 06:57:41;;;;;;;37.20;29.73;;;9.10;1.00;10.40;101177.00;;;;4968464;28;20467;-76
2021/10/19 07:00:12;;;;;;;34.80;28.10;;;9.20;1.00;10.40;101145.00;;;;4963856;28;20459;-76
2021/10/19 07:02:46;;;;;;;36.00;29.33;;;9.20;1.00;10.40;101184.00;;;;4961498;28;20459;-79
2021/10/19 07:05:15;;;;;;;38.70;28.97;;;9.20;1.00;10.40;101171.00;;;;4965774;28;20499;-77
2021/10/19 07:07:44;;;;;;;36.97;29.00;;;9.20;1.00;10.40;101180.00;;;;4974175;28;20535;-79
2021/10/19 07:10:14;;;;;;;35.40;28.77;;;9.20;1.00;10.40;101174.00;;;;4975266;28;20463;-79
2021/10/19 07:12:42;;;;;;;34.43;28.20;;;9.30;1.00;10.40;101176.00;;;;4977252;28;20498;-75
2021/10/19 07:15:11;;;;;;;35.60;29.10;;;9.30;1.00;10.50;101168.00;;;;4965251;28;20471;-75
2021/10/19 07:17:40;;;;;;;38.47;29.13;;;9.30;1.00;10.50;101142.00;;;;4955236;29;20556;-74
2021/10/19 07:20:12;;;;;;;40.57;29.87;;;9.30;1.00;10.60;101157.00;;;;4969033;28;20455;-78
2021/10/19 07:22:41;;;;;;;37.77;29.33;;;9.40;1.00;10.70;101161.00;;;;4974442;28;20459;-76
2021/10/19 07:25:12;;;;;;;39.93;30.40;;;9.40;1.00;10.70;101167.00;;;;4963829;28;20556;-77
2021/10/19 07:27:44;;;;;;;35.83;29.07;;;9.50;1.00;10.80;101168.00;;;;4968971;28;21520;-75
2021/10/19 07:30:16;;;;;;;41.93;28.47;;;9.50;1.00;10.80;101165.00;;;;4967304;28;20550;-76
2021/10/19 07:32:45;;;;;;;36.30;27.90;;;9.60;1.00;10.80;101142.00;;;;4967201;28;20439;-78
2021/10/19 07:35:17;;;;;;;38.77;30.10;;;9.60;1.00;10.90;101152.00;;;;4971445;28;20552;-76
2021/10/19 07:37:46;;;;;;;37.23;27.37;;;9.70;1.00;10.60;101158.00;;;;4976296;28;20448;-75
2021/10/19 07:40:16;;;;;;;34.20;28.33;;;9.70;1.00;10.90;101161.00;;;;4971095;28;20455;-76
2021/10/19 07:42:45;;;;;;;38.50;28.77;;;9.70;1.00;11.00;101150.00;;;;4972320;28;20448;-76
2021/10/19 07:45:16;;;;;;;38.33;28.57;;;9.80;1.00;11.00;101146.00;;;;4962133;28;20508;-77
2021/10/19 07:47:47;;;;;;;40.80;29.33;;;9.80;1.00;11.10;101152.00;;;;4978468;28;20548;-77
2021/10/19 07:50:19;;;;;;;35.10;27.30;;;9.80;1.00;11.10;101162.00;;;;4992628;28;20446;-75
2021/10/19 07:52:50;;;;;;;39.03;28.90;;;9.90;1.00;11.20;101168.00;;;;5000589;28;20446;-76
2021/10/19 07:55:18;;;;;;;36.07;27.90;;;9.90;1.00;11.20;101163.00;;;;4977051;28;20484;-76
2021/10/19 07:57:49;;;;;;;33.90;27.73;;;9.90;1.00;11.30;101163.00;;;;4988693;28;20533;-76
2021/10/19 08:00:23;;;;;;;31.57;25.37;;;10.00;1.00;11.30;101138.00;;;;4971038;28;20465;-77
2021/10/19 08:02:53;;;;;;;34.90;25.53;;;10.10;1.00;11.20;101133.00;;;;4971407;28;20458;-79
2021/10/19 08:05:24;;;;;;;36.37;26.53;;;10.10;1.00;11.40;101132.00;;;;4971500;28;21164;-77
2021/10/19 08:08:05;;;;;;;34.13;25.63;;;10.10;1.00;11.10;101151.00;;;;4976394;28;20464;-76
2021/10/19 08:10:36;;;;;;;33.67;26.57;;;10.20;1.00;11.40;101151.00;;;;4973575;28;20463;-77
2021/10/19 08:13:06;;;;;;;35.70;26.13;;;10.20;1.00;11.40;101131.00;;;;4973996;28;20464;-80
2021/10/19 08:15:34;;;;;;;31.07;24.83;;;10.20;1.00;11.50;101164.00;;;;4958968;28;20531;-77
2021/10/19 08:18:04;;;;;;;27.07;22.63;;;10.30;1.00;11.60;101150.00;;;;4969087;28;20567;-77
2021/10/19 08:20:34;;;;;;;30.70;24.90;;;10.30;1.00;11.60;101173.00;;;;4968981;28;20882;-79
2021/10/19 08:23:02;;;;;;;32.93;25.23;;;10.30;1.00;11.60;101137.00;;;;4966792;28;20540;-75
2021/10/19 08:25:31;;;;;;;26.17;22.90;;;10.40;1.00;11.70;101140.00;;;;4971103;28;20567;-76
2021/10/19 08:28:00;;;;;;;29.83;23.40;;;10.40;1.00;11.60;101042.00;;;;4969812;28;20464;-76
2021/10/19 08:30:36;;;;;;;28.23;23.00;;;10.50;1.00;11.90;101149.00;;;;4972637;28;20451;-79
2021/10/19 08:33:05;;;;;;;28.80;22.30;;;10.50;1.00;11.80;101149.00;;;;4969606;28;20459;-79
2021/10/19 08:35:35;;;;;;;27.33;21.10;;;10.50;1.00;11.90;101164.00;;;;4968320;28;20455;-76
2021/10/19 08:38:08;;;;;;;25.97;20.80;;;10.60;1.00;11.90;101102.00;;;;4962680;28;20462;-75
2021/10/19 08:40:39;;;;;;;27.30;22.90;;;10.60;1.00;11.60;101148.00;;;;4969306;28;20479;-81
2021/10/19 08:43:07;;;;;;;28.20;20.73;;;10.60;1.00;11.90;101156.00;;;;4959322;28;20487;-75
2021/10/19 08:45:36;;;;;;;26.80;20.83;;;10.60;1.00;11.90;101144.00;;;;4958170;28;20480;-77
2021/10/19 08:48:07;;;;;;;27.30;21.57;;;10.70;1.00;12.00;101141.00;;;;4962086;28;20487;-77
2021/10/19 08:50:37;;;;;;;27.50;20.60;;;10.70;1.00;12.00;101156.00;;;;4961458;28;20464;-77
2021/10/19 08:53:05;;;;;;;24.60;20.07;;;10.70;1.00;12.00;101147.00;;;;4962228;28;20470;-77
2021/10/19 08:55:34;;;;;;;22.50;18.70;;;10.70;1.00;12.00;100990.00;;;;4966920;28;20472;-79
2021/10/19 08:58:03;;;;;;;19.67;16.13;;;10.80;1.00;12.00;101150.00;;;;4954569;28;20540;-78
2021/10/19 09:00:32;;;;;;;23.63;17.47;;;10.80;1.00;12.00;101137.00;;;;4957550;28;20466;-77
2021/10/19 09:03:01;;;;;;;20.17;17.30;;;10.80;1.00;12.00;101140.00;;;;4967159;28;20459;-75
2021/10/19 09:05:31;;;;;;;20.57;17.77;;;10.80;1.00;11.80;101146.00;;;;4966849;28;20541;-76
2021/10/19 09:08:03;;;;;;;18.10;15.90;;;10.80;1.00;12.00;101150.00;;;;4964547;28;20576;-76
2021/10/19 09:10:34;;;;;;;15.77;13.30;;;10.80;1.00;12.10;101127.00;;;;4967382;28;20440;-76
2021/10/19 09:13:05;;;;;;;14.97;12.83;;;10.90;1.00;12.10;101147.00;;;;4957233;28;20457;-80
2021/10/19 09:15:37;;;;;;;12.77;11.37;;;11.00;1.00;12.10;101143.00;;;;4965587;28;20499;-78
2021/10/19 09:18:08;;;;;;;13.10;11.50;;;10.90;1.00;12.10;101155.00;;;;4991185;28;20499;-81
2021/10/19 09:20:42;;;;;;;14.10;12.30;;;11.10;1.00;12.20;101146.00;;;;4966731;28;20448;-79
2021/10/19 09:23:18;;;;;;;14.63;11.23;;;11.00;1.00;12.20;101142.00;;;;4963994;28;20452;-79
2021/10/19 09:25:50;;;;;;;14.73;11.50;;;11.10;1.00;12.30;101135.00;;;;4960515;28;20690;-76
2021/10/19 09:28:34;;;;;;;12.60;11.43;;;11.10;1.00;12.40;101124.00;;;;4978483;28;20534;-79
2021/10/19 09:31:03;;;;;;;11.93;10.73;;;11.20;1.00;12.50;101136.00;;;;4965663;28;20440;-77
2021/10/19 09:33:31;;;;;;;15.47;11.57;;;11.20;1.00;12.40;101044.00;;;;4964202;28;20483;-79
2021/10/19 09:36:00;;;;;;;12.00;10.80;;;11.20;1.00;12.50;101002.00;;;;4962006;28;20828;-77
2021/10/19 09:38:32;;;;;;;13.13;10.63;;;11.20;1.00;12.50;101138.00;;;;4963235;28;20944;-77
2021/10/19 09:41:02;;;;;;;11.13;9.93;;;11.30;1.00;12.60;101130.00;;;;4961964;28;20445;-76
2021/10/19 09:43:34;;;;;;;10.93;9.83;;;11.40;1.00;12.70;101108.00;;;;4953873;28;20492;-76
2021/10/19 09:46:06;;;;;;;11.07;9.97;;;11.50;1.00;12.80;101118.00;;;;4962997;28;20896;-78
2021/10/19 09:48:38;;;;;;;11.23;10.23;;;11.60;1.00;12.90;101116.00;;;;4963878;28;20451;-76
2021/10/19 09:51:07;;;;;;;11.17;10.17;;;11.60;1.00;13.00;101121.00;;;;4963664;28;20455;-80
2021/10/19 09:53:38;;;;;;;10.57;9.47;;;11.80;1.00;13.10;101119.00;;;;4962855;28;20540;-78
2021/10/19 09:56:10;;;;;;;10.67;9.67;;;11.90;1.00;13.20;101113.00;;;;4965882;28;20462;-79
2021/10/19 09:58:40;;;;;;;10.77;9.70;;;12.00;1.00;13.40;101101.00;;;;4954219;28;20547;-80
2021/10/19 10:01:10;;;;;;;12.50;10.30;;;12.10;1.00;13.50;101108.00;;;;4961421;28;20456;-80
2021/10/19 10:03:44;;;;;;;13.27;11.87;;;12.20;1.00;13.60;101117.00;;;;4978170;28;20851;-79
2021/10/19 10:06:14;;;;;;;10.63;9.63;;;12.30;1.00;13.50;101127.00;;;;4965597;28;20484;-77
2021/10/19 10:08:46;;;;;;;11.60;10.40;;;12.20;1.00;13.50;101084.00;;;;4967442;28;20460;-78
2021/10/19 10:11:16;;;;;;;11.80;10.67;;;12.20;1.00;13.40;101121.00;;;;4964613;28;20452;-77
2021/10/19 10:13:56;;;;;;;11.73;10.63;;;12.20;1.00;13.30;101089.00;;;;4964954;28;20476;-81
2021/10/19 10:16:25;;;;;;;12.50;11.20;;;12.00;1.00;13.20;101099.00;;;;4964851;28;20511;-79
2021/10/19 10:18:54;;;;;;;11.70;10.53;;;12.00;1.00;13.00;101069.00;;;;4964337;28;20524;-76
2021/10/19 10:21:27;;;;;;;12.97;11.67;;;12.00;1.00;13.10;101108.00;;;;4960537;28;20451;-80
2021/10/19 10:24:03;;;;;;;13.30;12.07;;;12.00;1.00;13.10;101118.00;;;;4962598;28;20853;-76
2021/10/19 10:26:35;;;;;;;13.97;12.67;;;11.90;1.00;13.10;101120.00;;;;4960803;28;21269;-81
2021/10/19 10:29:10;;;;;;;14.67;13.27;;;11.90;1.00;13.10;101105.00;;;;4962105;28;21076;-82
2021/10/19 10:31:51;;;;;;;14.87;13.37;;;11.90;1.00;13.10;101039.00;;;;4964646;28;20522;-75
2021/10/19 10:34:30;;;;;;;14.20;12.80;;;11.90;1.00;13.10;101110.00;;;;4965966;28;20504;-79
2021/10/19 10:37:11;;;;;;;13.87;12.57;;;11.90;1.00;13.00;101085.00;;;;4956485;28;20469;-79
2021/10/19 10:39:46;;;;;;;16.43;14.70;;;11.90;1.00;13.00;101091.00;;;;4965755;28;20479;-77
2021/10/19 10:42:16;;;;;;;17.73;15.60;;;11.80;1.00;13.00;101103.00;;;;4965088;28;20545;-77
2021/10/19 10:44:45;;;;;;;16.57;14.87;;;11.90;1.00;12.90;101094.00;;;;4965796;28;20482;-80
2021/10/19 10:47:24;;;;;;;16.57;14.83;;;12.00;1.00;13.20;101105.00;;;;4978481;28;20477;-82
2021/10/19 10:49:52;;;;;;;16.90;15.10;;;12.00;1.00;13.30;101118.00;;;;4979548;28;20468;-79
2021/10/19 10:52:21;;;;;;;17.03;15.33;;;12.00;1.00;13.30;101081.00;;;;4978107;28;20951;-82
2021/10/19 10:54:56;;;;;;;16.47;14.77;;;12.10;1.00;13.40;101105.00;;;;4973243;28;20479;-79
2021/10/19 10:57:24;;;;;;;17.03;15.43;;;12.10;1.00;13.50;101077.00;;;;4968243;28;20455;-76